Time;durP1;ratioP1;P1;durP2;ratioP2;P2;SDS_P1;SDS_P2;PMS_P1;PMS_P2;Temp;Humidity;BMP_temperature;BMP_pressure;BME280_temperature;BME280_humidity;BME280_pressure;Samples;Min_cycle;Max_cycle;Signal;HPM_P1;HPM_P2
2023/04/25 00:01:46;;;;;;;4.20;3.60;;;;;;;12.92;100.00;98671.50;5114198;28;20030;-67
2023/04/25 00:04:11;;;;;;;4.43;3.60;;;;;;;13.17;100.00;98659.94;5114043;28;20108;-68
2023/04/25 00:06:37;;;;;;;3.67;3.30;;;;;;;13.33;100.00;98654.22;5097694;28;20462;-68
2023/04/25 00:09:10;;;;;;;7.90;4.65;;;;;;;13.51;100.00;98644.53;5093600;28;20059;-67
2023/04/25 00:11:36;;;;;;;7.32;3.88;;;;;;;13.61;98.51;98639.06;5092737;28;20131;-68
2023/04/25 00:14:02;;;;;;;5.00;3.60;;;;;;;13.69;97.50;98653.25;5093497;28;20061;-68
2023/04/25 00:16:30;;;;;;;3.92;3.53;;;;;;;13.76;96.48;98659.81;5094743;28;20379;-67
2023/04/25 00:18:58;;;;;;;8.23;4.05;;;;;;;13.76;95.96;98656.19;5076694;28;20048;-67
2023/04/25 00:21:24;;;;;;;3.97;3.40;;;;;;;13.80;94.33;98645.81;5113753;28;20110;-68
2023/04/25 00:23:50;;;;;;;5.45;3.35;;;;;;;13.88;93.69;98650.38;5113661;28;20106;-68
2023/04/25 00:26:15;;;;;;;4.55;3.33;;;;;;;13.82;93.64;98637.81;5113567;28;20023;-67
2023/04/25 00:28:41;;;;;;;3.67;3.25;;;;;;;13.95;93.88;98651.66;5093855;28;20392;-68
2023/04/25 00:31:06;;;;;;;5.45;3.30;;;;;;;13.74;94.38;98653.75;5113627;28;20024;-68
2023/04/25 00:33:32;;;;;;;5.97;4.13;;;;;;;13.21;98.05;98657.22;5113529;28;20023;-67
2023/04/25 00:35:57;;;;;;;5.90;3.83;;;;;;;13.54;96.35;98644.59;5102922;28;20024;-68
2023/04/25 00:38:23;;;;;;;6.40;3.80;;;;;;;13.69;95.52;98647.63;5074842;28;20028;-68
2023/04/25 00:40:48;;;;;;;5.90;4.57;;;;;;;13.79;95.64;98649.81;5074919;28;20015;-68
2023/04/25 00:43:14;;;;;;;7.63;4.70;;;;;;;13.61;95.68;98658.75;5092813;28;20032;-68
2023/04/25 00:45:40;;;;;;;5.60;4.38;;;;;;;13.13;97.80;98642.22;5084905;28;20031;-67
2023/04/25 00:48:06;;;;;;;6.25;4.85;;;;;;;13.30;98.73;98640.94;5113118;28;20485;-68
2023/04/25 00:50:33;;;;;;;5.55;4.43;;;;;;;12.95;100.00;98641.91;5090955;28;20035;-68
2023/04/25 00:53:00;;;;;;;7.22;5.35;;;;;;;12.69;100.00;98656.59;5092845;28;20027;-68
2023/04/25 00:55:26;;;;;;;7.68;5.05;;;;;;;12.53;100.00;98653.84;5092702;28;20043;-68
2023/04/25 00:57:52;;;;;;;8.00;5.97;;;;;;;12.31;100.00;98659.03;5092654;28;20103;-67
2023/04/25 01:00:18;;;;;;;7.93;5.05;;;;;;;12.20;100.00;98659.59;5091800;28;20608;-67
2023/04/25 01:02:45;;;;;;;6.00;4.90;;;;;;;12.16;100.00;98652.28;5092631;28;20032;-67
2023/04/25 01:05:11;;;;;;;7.55;5.90;;;;;;;11.84;100.00;98644.72;5092622;28;20508;-67
2023/04/25 01:07:37;;;;;;;9.20;6.05;;;;;;;11.80;100.00;98652.22;5077539;28;20069;-68
2023/04/25 01:10:03;;;;;;;8.98;6.28;;;;;;;12.08;100.00;98651.31;5090875;28;20437;-67
2023/04/25 01:12:29;;;;;;;15.15;6.63;;;;;;;12.18;100.00;98659.13;5091025;28;20059;-67
2023/04/25 01:14:55;;;;;;;9.85;6.72;;;;;;;12.13;100.00;98658.63;5092231;28;20032;-68
2023/04/25 01:17:21;;;;;;;12.02;7.28;;;;;;;12.23;100.00;98646.81;5093731;28;20106;-67
2023/04/25 01:19:48;;;;;;;10.07;7.53;;;;;;;12.32;100.00;98649.44;5099954;28;20023;-68
2023/04/25 01:22:14;;;;;;;8.85;6.97;;;;;;;12.31;100.00;98656.22;5112641;28;20074;-67
2023/04/25 01:24:40;;;;;;;9.23;6.32;;;;;;;12.00;100.00;98641.88;5112492;28;20023;-67
2023/04/25 01:27:06;;;;;;;12.65;6.15;;;;;;;11.82;100.00;98640.66;5112620;28;20020;-67
2023/04/25 01:29:32;;;;;;;9.07;6.63;;;;;;;11.81;100.00;98637.03;5112318;28;20482;-67
2023/04/25 01:31:58;;;;;;;9.68;6.55;;;;;;;11.64;100.00;98632.63;5102800;28;20058;-67
2023/04/25 01:34:25;;;;;;;11.07;7.20;;;;;;;11.45;100.00;98627.75;5093721;28;20035;-67
2023/04/25 01:36:51;;;;;;;13.75;8.10;;;;;;;11.55;100.00;98630.00;5112284;28;20023;-67
2023/04/25 01:39:18;;;;;;;11.60;7.35;;;;;;;11.80;100.00;98638.19;5112110;28;20066;-67
2023/04/25 01:41:44;;;;;;;13.82;7.75;;;;;;;11.84;100.00;98636.31;5111752;28;20066;-67
2023/04/25 01:44:10;;;;;;;12.07;7.85;;;;;;;11.64;100.00;98630.63;5112047;28;20084;-67
2023/04/25 01:46:35;;;;;;;14.02;8.18;;;;;;;11.74;100.00;98620.06;5093900;28;20042;-67
2023/04/25 01:49:01;;;;;;;13.85;8.68;;;;;;;11.69;100.00;98611.91;5107637;28;20008;-67
2023/04/25 01:51:27;;;;;;;13.15;8.32;;;;;;;11.75;100.00;98616.88;5093818;28;20092;-67
2023/04/25 01:53:53;;;;;;;10.57;7.28;;;;;;;11.79;100.00;98609.38;5093696;28;20012;-67
2023/04/25 01:56:20;;;;;;;12.30;7.75;;;;;;;11.58;100.00;98606.06;5089889;28;20064;-67
2023/04/25 01:58:45;;;;;;;13.95;8.63;;;;;;;11.59;100.00;98602.91;5091491;28;20027;-67
2023/04/25 02:01:11;;;;;;;10.90;7.65;;;;;;;11.83;100.00;98597.44;5092162;28;20392;-67
2023/04/25 02:03:36;;;;;;;9.98;7.53;;;;;;;12.07;100.00;98604.84;5091571;28;20062;-67
2023/04/25 02:06:02;;;;;;;10.65;7.55;;;;;;;12.23;100.00;98607.56;5091259;28;20471;-67
2023/04/25 02:08:28;;;;;;;13.75;7.70;;;;;;;12.18;100.00;98611.47;5091426;28;20029;-68
2023/04/25 02:10:53;;;;;;;12.95;8.75;;;;;;;12.30;100.00;98601.28;5091337;28;20541;-67
2023/04/25 02:13:19;;;;;;;14.15;8.35;;;;;;;12.17;100.00;98603.44;5091236;28;20056;-67
2023/04/25 02:15:44;;;;;;;14.32;8.57;;;;;;;12.34;100.00;98607.81;5073113;28;20028;-67
2023/04/25 02:18:11;;;;;;;13.38;8.68;;;;;;;12.48;100.00;98610.91;5105419;28;20028;-67
2023/04/25 02:20:36;;;;;;;11.82;7.78;;;;;;;12.61;100.00;98605.16;5095962;28;20051;-67
2023/04/25 02:23:03;;;;;;;12.43;8.10;;;;;;;12.57;100.00;98607.88;5090526;28;20020;-67
2023/04/25 02:25:28;;;;;;;16.70;9.25;;;;;;;12.06;100.00;98603.19;5091331;28;20032;-67
2023/04/25 02:27:54;;;;;;;15.45;10.13;;;;;;;11.97;100.00;98605.38;5091380;28;20031;-67
2023/04/25 02:30:20;;;;;;;15.27;10.02;;;;;;;12.01;100.00;98609.06;5091044;28;20028;-67
2023/04/25 02:32:45;;;;;;;11.45;8.82;;;;;;;12.12;100.00;98612.94;5091278;28;20391;-67
2023/04/25 02:35:11;;;;;;;18.50;11.05;;;;;;;11.91;100.00;98614.06;5091972;28;20031;-67
2023/04/25 02:37:38;;;;;;;16.00;11.43;;;;;;;12.14;100.00;98633.00;5073129;28;20035;-67
2023/04/25 02:40:04;;;;;;;19.70;11.48;;;;;;;11.88;100.00;98622.38;5090163;28;20069;-67
2023/04/25 02:42:30;;;;;;;19.65;11.02;;;;;;;11.94;100.00;98618.94;5091432;28;20101;-67
2023/04/25 02:44:56;;;;;;;17.33;10.63;;;;;;;11.96;100.00;98614.97;5089713;28;20115;-67
2023/04/25 02:47:21;;;;;;;15.88;10.63;;;;;;;12.21;100.00;98623.94;5090456;28;20091;-67
2023/04/25 02:49:47;;;;;;;14.63;10.48;;;;;;;12.43;100.00;98621.63;5077478;28;20344;-68
2023/04/25 02:52:12;;;;;;;16.40;10.38;;;;;;;12.52;100.00;98621.38;5110275;28;20102;-67
2023/04/25 02:54:39;;;;;;;15.48;9.45;;;;;;;12.57;100.00;98612.69;5115157;28;20513;-67
2023/04/25 02:57:04;;;;;;;14.68;10.73;;;;;;;12.71;100.00;98612.97;5104209;28;20456;-67
2023/04/25 02:59:30;;;;;;;11.75;9.50;;;;;;;12.80;100.00;98600.72;5094155;28;20039;-67
2023/04/25 03:01:55;;;;;;;18.33;11.15;;;;;;;12.90;100.00;98602.88;5094819;28;20049;-67
2023/04/25 03:04:23;;;;;;;12.55;9.00;;;;;;;12.93;100.00;98610.59;5094946;28;20023;-67
2023/04/25 03:06:52;;;;;;;14.82;8.85;;;;;;;12.91;100.00;98601.69;5094722;28;20095;-67
2023/04/25 03:09:17;;;;;;;12.00;9.57;;;;;;;12.84;100.00;98595.97;5094700;28;20020;-67
2023/04/25 03:11:44;;;;;;;15.90;10.77;;;;;;;12.93;100.00;98599.38;5076362;28;20040;-67
2023/04/25 03:14:10;;;;;;;13.82;10.00;;;;;;;12.88;100.00;98591.22;5080986;28;20020;-67
2023/04/25 03:16:35;;;;;;;14.77;10.13;;;;;;;12.86;100.00;98586.00;5109665;28;20024;-67
2023/04/25 03:19:02;;;;;;;19.30;9.82;;;;;;;12.78;100.00;98582.22;5094829;28;20062;-67
2023/04/25 03:21:27;;;;;;;16.98;10.40;;;;;;;12.62;100.00;98578.72;5094354;28;20032;-67
2023/04/25 03:23:53;;;;;;;14.73;9.38;;;;;;;12.67;100.00;98586.84;5076307;28;20073;-67
2023/04/25 03:26:18;;;;;;;14.05;9.38;;;;;;;12.77;99.98;98582.63;5094431;28;20020;-67
2023/04/25 03:28:44;;;;;;;15.27;10.35;;;;;;;12.62;100.00;98579.53;5094577;28;20020;-67
2023/04/25 03:31:09;;;;;;;13.63;10.70;;;;;;;12.58;100.00;98589.06;5094253;28;20057;-67
2023/04/25 03:33:34;;;;;;;12.75;8.60;;;;;;;12.54;100.00;98582.56;5093485;28;20073;-67
2023/04/25 03:36:00;;;;;;;14.48;8.60;;;;;;;12.51;100.00;98575.72;5098005;28;20023;-67
2023/04/25 03:38:25;;;;;;;10.98;8.15;;;;;;;12.50;100.00;98576.91;5114568;28;20534;-68
2023/04/25 03:40:51;;;;;;;11.70;8.18;;;;;;;12.49;100.00;98581.69;5096275;28;20019;-67
2023/04/25 03:43:17;;;;;;;11.00;8.82;;;;;;;12.46;100.00;98571.22;5096305;28;20023;-67
2023/04/25 03:45:42;;;;;;;10.48;7.88;;;;;;;12.44;100.00;98570.78;5096091;28;20414;-67
2023/04/25 03:48:08;;;;;;;9.75;7.25;;;;;;;12.44;100.00;98570.78;5109734;28;20081;-66
2023/04/25 03:50:34;;;;;;;10.20;7.57;;;;;;;12.42;100.00;98570.31;5098688;28;20082;-66
2023/04/25 03:52:59;;;;;;;11.63;8.30;;;;;;;12.41;100.00;98573.50;5093925;28;20503;-67
2023/04/25 03:55:25;;;;;;;14.95;9.75;;;;;;;12.54;100.00;98577.78;5094644;28;20024;-68
2023/04/25 03:57:50;;;;;;;21.38;10.70;;;;;;;12.63;100.00;98574.72;5079984;28;20028;-68
2023/04/25 04:00:16;;;;;;;15.35;11.65;;;;;;;12.66;99.47;98584.41;5104412;28;20122;-67
2023/04/25 04:02:41;;;;;;;16.27;11.55;;;;;;;12.66;99.60;98573.19;5093806;28;20055;-67
2023/04/25 04:05:07;;;;;;;16.65;12.85;;;;;;;12.67;99.46;98574.81;5100438;28;20115;-69
2023/04/25 04:07:33;;;;;;;20.45;12.43;;;;;;;12.75;98.99;98570.97;5105584;28;20606;-67
2023/04/25 04:09:59;;;;;;;18.05;12.02;;;;;;;12.84;98.11;98581.94;5092270;28;20102;-69
2023/04/25 04:12:24;;;;;;;17.48;11.93;;;;;;;12.85;97.68;98575.16;5093533;28;20395;-67
2023/04/25 04:14:50;;;;;;;20.00;12.68;;;;;;;12.84;97.41;98582.75;5092348;28;20486;-65
2023/04/25 04:17:15;;;;;;;20.67;13.23;;;;;;;12.82;97.29;98570.28;5093686;28;20024;-66
2023/04/25 04:19:41;;;;;;;23.05;14.38;;;;;;;12.92;96.38;98573.28;5100280;28;20023;-66
2023/04/25 04:22:07;;;;;;;19.55;14.15;;;;;;;12.95;96.50;98574.53;5106457;28;20028;-67
2023/04/25 04:24:32;;;;;;;25.08;17.48;;;;;;;12.95;96.12;98574.53;5091672;28;20025;-66
2023/04/25 04:26:58;;;;;;;25.67;18.25;;;;;;;12.85;96.57;98569.53;5092526;28;20061;-68
2023/04/25 04:29:24;;;;;;;26.83;19.25;;;;;;;12.81;97.14;98571.47;5090708;28;20048;-67
2023/04/25 04:31:52;;;;;;;29.63;20.80;;;;;;;12.86;96.88;98571.16;5092435;28;20058;-67
2023/04/25 04:34:18;;;;;;;38.30;23.63;;;;;;;12.85;97.23;98575.16;5097507;28;20023;-67
2023/04/25 04:36:46;;;;;;;32.75;21.92;;;;;;;12.94;97.23;98583.31;5090823;28;20020;-67
2023/04/25 04:39:13;;;;;;;29.52;21.00;;;;;;;12.88;97.58;98577.19;5089986;28;20558;-66
2023/04/25 04:41:38;;;;;;;53.92;19.85;;;;;;;12.89;97.50;98587.25;5103319;28;20494;-66
2023/04/25 04:44:06;;;;;;;28.98;19.13;;;;;;;12.87;97.73;98590.44;5104778;28;20081;-68
2023/04/25 04:46:37;;;;;;;25.92;18.23;;;;;;;12.61;98.18;98577.91;5080420;28;20020;-68
2023/04/25 04:49:05;;;;;;;25.00;18.08;;;;;;;12.70;98.41;98591.72;5090808;28;20024;-67
2023/04/25 04:51:33;;;;;;;35.25;19.45;;;;;;;12.83;98.58;98594.34;5090553;28;20027;-67
2023/04/25 04:54:02;;;;;;;28.30;17.45;;;;;;;13.08;97.57;98594.00;5095833;28;20028;-66
2023/04/25 04:56:30;;;;;;;19.45;14.70;;;;;;;13.09;96.09;98590.00;5075133;28;20816;-68
2023/04/25 04:58:57;;;;;;;26.23;18.10;;;;;;;12.99;97.25;98597.84;5092028;28;20073;-65
2023/04/25 05:01:22;;;;;;;30.55;20.55;;;;;;;13.14;96.39;98590.50;5092736;28;20100;-66
2023/04/25 05:03:48;;;;;;;24.00;17.42;;;;;;;13.23;95.28;98593.06;5096540;28;20028;-66
2023/04/25 05:06:13;;;;;;;21.85;15.68;;;;;;;13.33;95.54;98598.06;5095265;28;20036;-66
2023/04/25 05:08:39;;;;;;;15.85;11.73;;;;;;;13.41;95.25;98592.56;5092349;28;20099;-67
2023/04/25 05:11:05;;;;;;;18.05;12.02;;;;;;;13.51;95.28;98599.56;5098314;28;20027;-66
2023/04/25 05:13:30;;;;;;;16.67;11.68;;;;;;;13.59;94.01;98602.13;5091102;28;20058;-65
2023/04/25 05:15:56;;;;;;;19.35;12.68;;;;;;;13.70;93.56;98604.28;5091682;28;20027;-67
2023/04/25 05:18:21;;;;;;;19.73;14.95;;;;;;;13.93;94.07;98609.06;5093356;28;20050;-66
2023/04/25 05:20:47;;;;;;;22.50;15.27;;;;;;;14.28;93.70;98610.75;5096746;28;20529;-68
2023/04/25 05:23:12;;;;;;;25.58;14.43;;;;;;;14.21;92.66;98613.47;5101212;28;20461;-67
2023/04/25 05:25:37;;;;;;;21.17;13.48;;;;;;;13.86;92.70;98604.94;5100346;28;20031;-67
2023/04/25 05:28:03;;;;;;;16.85;12.65;;;;;;;13.70;94.34;98607.94;5091377;28;20038;-67
2023/04/25 05:30:29;;;;;;;17.67;12.75;;;;;;;13.83;94.68;98602.09;5092210;28;20020;-67
2023/04/25 05:32:54;;;;;;;16.10;11.65;;;;;;;14.05;95.07;98611.66;5106317;28;20037;-67
2023/04/25 05:35:20;;;;;;;17.55;12.40;;;;;;;14.31;91.53;98599.56;5094095;28;20027;-67
2023/04/25 05:37:45;;;;;;;15.10;10.55;;;;;;;14.43;89.64;98606.94;5111974;28;20128;-66
2023/04/25 05:40:11;;;;;;;16.88;11.35;;;;;;;14.38;89.46;98595.19;5109084;28;20042;-67
2023/04/25 05:42:36;;;;;;;14.52;11.20;;;;;;;14.51;90.51;98593.75;5074744;28;20020;-67
2023/04/25 05:45:02;;;;;;;15.77;10.82;;;;;;;14.51;91.74;98592.97;5081695;28;20023;-67
2023/04/25 05:47:28;;;;;;;15.68;11.65;;;;;;;14.51;90.75;98590.94;5111365;28;20031;-67
2023/04/25 05:49:53;;;;;;;13.27;10.73;;;;;;;14.65;90.61;98589.50;5111496;28;20084;-67
2023/04/25 05:52:19;;;;;;;18.88;12.18;;;;;;;14.64;88.84;98596.31;5110720;28;20050;-68
2023/04/25 05:54:44;;;;;;;14.52;11.50;;;;;;;14.81;90.50;98589.31;5111074;28;20031;-67
2023/04/25 05:57:22;;;;;;;17.48;12.18;;;;;;;15.04;89.07;98582.72;5095891;28;20027;-68
2023/04/25 05:59:47;;;;;;;11.93;10.35;;;;;;;15.28;88.83;98584.94;5109226;28;20134;-66
2023/04/25 06:02:13;;;;;;;14.52;11.90;;;;;;;15.61;84.77;98582.41;5091281;28;20035;-65
2023/04/25 06:04:38;;;;;;;13.40;10.77;;;;;;;15.64;85.87;98583.63;5089954;28;20036;-66
2023/04/25 06:07:04;;;;;;;12.48;10.13;;;;;;;15.78;84.32;98582.94;5109193;28;20092;-68
2023/04/25 06:09:30;;;;;;;11.73;8.73;;;;;;;15.90;83.19;98579.81;5096496;28;20051;-66
2023/04/25 06:11:55;;;;;;;14.38;7.63;;;;;;;15.84;81.00;98578.53;5090909;28;20052;-66
2023/04/25 06:14:20;;;;;;;9.80;7.53;;;;;;;15.52;84.69;98563.00;5108417;28;20034;-66
2023/04/25 06:16:46;;;;;;;12.38;8.85;;;;;;;15.66;83.96;98569.94;5090565;28;20024;-66
2023/04/25 06:19:11;;;;;;;12.10;9.38;;;;;;;15.54;84.91;98562.63;5108142;28;20035;-67
2023/04/25 06:21:37;;;;;;;12.25;8.00;;;;;;;15.51;85.19;98577.50;5109220;28;20042;-65
2023/04/25 06:24:02;;;;;;;10.30;8.15;;;;;;;15.85;83.26;98572.50;5090306;28;20032;-66
2023/04/25 06:26:28;;;;;;;11.02;6.18;;;;;;;16.17;78.79;98584.38;5107977;28;20039;-68
2023/04/25 06:28:53;;;;;;;7.72;5.53;;;;;;;16.06;79.33;98587.97;5094244;28;20038;-66
2023/04/25 06:31:19;;;;;;;10.38;6.07;;;;;;;16.37;77.69;98585.72;5108812;28;20027;-67
2023/04/25 06:33:44;;;;;;;6.88;5.03;;;;;;;16.38;76.62;98587.31;5106712;28;20039;-67
2023/04/25 06:36:10;;;;;;;10.60;6.97;;;;;;;16.32;79.38;98583.28;5086996;28;20032;-66
2023/04/25 06:38:35;;;;;;;9.95;6.78;;;;;;;16.44;80.06;98581.31;5099791;28;20039;-67
2023/04/25 06:41:04;;;;;;;8.05;6.38;;;;;;;16.03;78.44;98585.94;5110755;28;20479;-69
2023/04/25 06:43:32;;;;;;;8.85;6.55;;;;;;;15.86;80.05;98571.31;5104247;28;20417;-68
2023/04/25 06:45:59;;;;;;;9.73;6.70;;;;;;;15.65;80.12;98573.97;5090531;28;20036;-68
2023/04/25 06:48:25;;;;;;;13.88;8.20;;;;;;;15.76;80.45;98569.22;5091727;28;20020;-69
2023/04/25 06:50:50;;;;;;;10.93;8.15;;;;;;;15.78;79.36;98575.28;5106147;28;20497;-71
2023/04/25 06:53:16;;;;;;;11.18;8.00;;;;;;;16.05;77.45;98575.09;5091064;28;20028;-71
2023/04/25 06:55:41;;;;;;;14.63;10.23;;;;;;;15.72;80.53;98574.81;5099990;28;20027;-68
2023/04/25 06:58:07;;;;;;;11.45;9.52;;;;;;;15.67;78.58;98580.84;5100209;28;20081;-67
2023/04/25 07:00:33;;;;;;;15.20;10.40;;;;;;;15.75;80.50;98580.88;5108996;28;20051;-68
2023/04/25 07:02:58;;;;;;;10.68;8.63;;;;;;;15.68;80.35;98571.19;5111149;28;20482;-70
2023/04/25 07:05:24;;;;;;;11.98;9.60;;;;;;;16.00;78.71;98572.63;5107942;28;20031;-70
2023/04/25 07:07:49;;;;;;;12.27;8.43;;;;;;;15.51;79.50;98575.47;5111167;28;20092;-66
2023/04/25 07:10:15;;;;;;;12.90;8.52;;;;;;;15.97;79.19;98560.09;5110575;28;20016;-69
2023/04/25 07:12:40;;;;;;;26.23;10.52;;;;;;;16.39;78.52;98571.22;5110868;28;20074;-71
2023/04/25 07:15:07;;;;;;;247.43;42.05;;;;;;;16.58;76.76;98570.06;5109099;28;20027;-70
2023/04/25 07:17:33;;;;;;;13.02;9.60;;;;;;;16.86;76.21;98573.38;5111306;28;20070;-71
2023/04/25 07:19:59;;;;;;;12.23;8.15;;;;;;;17.19;75.05;98568.63;5110694;28;20475;-69
2023/04/25 07:22:26;;;;;;;10.80;7.78;;;;;;;17.36;73.01;98572.66;5092845;28;20081;-70
2023/04/25 07:24:53;;;;;;;10.70;7.45;;;;;;;17.46;73.58;98574.69;5096726;28;20024;-69
2023/04/25 07:27:18;;;;;;;16.02;8.35;;;;;;;17.26;73.97;98572.28;5079401;28;20085;-70
2023/04/25 07:29:44;;;;;;;10.77;7.40;;;;;;;17.77;73.28;98563.78;5071853;28;20020;-71
2023/04/25 07:32:11;;;;;;;10.30;7.88;;;;;;;17.69;69.90;98550.84;5109772;28;20032;-69
2023/04/25 07:34:38;;;;;;;18.17;10.25;;;;;;;17.79;70.98;98552.84;5109742;28;20054;-70
2023/04/25 07:37:04;;;;;;;27.05;18.10;;;;;;;17.78;69.26;98551.25;5092109;28;20032;-68
2023/04/25 07:39:30;;;;;;;17.30;12.98;;;;;;;18.09;69.39;98547.97;5112460;28;20088;-72
2023/04/25 07:41:58;;;;;;;14.15;11.40;;;;;;;17.39;72.90;98550.06;5112156;28;20035;-70
2023/04/25 07:44:24;;;;;;;17.05;10.98;;;;;;;16.51;75.21;98551.09;5114369;28;20539;-70
2023/04/25 07:46:49;;;;;;;13.02;9.85;;;;;;;16.64;75.74;98548.72;5114451;28;20027;-70
2023/04/25 07:49:15;;;;;;;13.48;10.18;;;;;;;17.10;72.95;98540.75;5114573;28;20359;-69
2023/04/25 07:51:43;;;;;;;11.88;9.02;;;;;;;17.29;72.85;98538.75;5114417;28;20028;-70
2023/04/25 07:54:09;;;;;;;12.15;9.25;;;;;;;17.58;72.36;98538.75;5114036;28;20027;-69
2023/04/25 07:56:34;;;;;;;13.63;9.55;;;;;;;17.46;72.12;98546.41;5114795;28;20027;-69
2023/04/25 07:59:00;;;;;;;7.78;7.05;;;;;;;17.15;71.80;98543.22;5114353;28;20023;-69
2023/04/25 08:01:26;;;;;;;13.77;7.95;;;;;;;16.68;74.40;98548.72;5094820;28;20027;-69
2023/04/25 08:03:52;;;;;;;7.78;6.85;;;;;;;16.96;77.08;98553.63;5095148;28;20020;-69
2023/04/25 08:06:18;;;;;;;10.68;7.93;;;;;;;17.07;75.55;98550.03;5113205;28;20031;-69
2023/04/25 08:08:43;;;;;;;12.82;6.45;;;;;;;17.08;77.74;98557.31;5094969;28;20026;-69
2023/04/25 08:11:09;;;;;;;11.75;6.57;;;;;;;17.42;74.78;98556.09;5112707;28;20102;-70
2023/04/25 08:13:35;;;;;;;13.05;6.50;;;;;;;17.46;72.24;98554.09;5090974;28;20048;-69
2023/04/25 08:16:00;;;;;;;11.00;5.85;;;;;;;16.94;75.02;98561.69;5085422;28;20501;-68
2023/04/25 08:18:26;;;;;;;18.50;12.50;;;;;;;16.83;74.23;98567.34;5092626;28;20566;-72
2023/04/25 08:20:51;;;;;;;8.82;6.38;;;;;;;16.96;74.88;98559.28;5087207;28;20102;-69
2023/04/25 08:23:17;;;;;;;10.10;8.88;;;;;;;16.93;73.10;98562.91;5072433;28;20028;-70
2023/04/25 08:25:42;;;;;;;24.98;17.08;;;;;;;17.07;76.50;98558.53;5073335;28;20059;-70
2023/04/25 08:28:08;;;;;;;9.10;5.60;;;;;;;17.05;74.08;98550.44;5073493;28;20032;-70
2023/04/25 08:30:33;;;;;;;26.88;20.02;;;;;;;16.59;74.72;98549.09;5073448;28;20021;-70
2023/04/25 08:32:58;;;;;;;380.13;259.35;;;;;;;16.82;75.89;98550.78;5093084;28;20032;-70
2023/04/25 08:35:24;;;;;;;39.17;28.65;;;;;;;16.64;76.03;98557.19;5089530;28;20024;-72
2023/04/25 08:37:49;;;;;;;6.90;5.60;;;;;;;16.74;76.22;98557.63;5092680;28;20047;-69
2023/04/25 08:40:16;;;;;;;11.65;6.10;;;;;;;16.21;76.28;98557.81;5080544;28;20029;-71
2023/04/25 08:42:42;;;;;;;61.88;11.88;;;;;;;16.46;76.14;98557.13;5075821;28;20024;-69
2023/04/25 08:45:08;;;;;;;13.88;6.10;;;;;;;16.23;74.92;98571.53;5072006;28;20059;-67
2023/04/25 08:47:34;;;;;;;469.40;298.85;;;;;;;16.32;76.66;98568.34;5071834;28;20059;-69
2023/04/25 08:50:03;;;;;;;273.50;174.43;;;;;;;16.38;77.09;98559.09;5079994;28;20078;-69
2023/04/25 08:52:35;;;;;;;14.32;9.23;;;;;;;16.30;74.56;98563.13;5078140;28;20040;-70
2023/04/25 08:55:04;;;;;;;13.25;6.50;;;;;;;16.53;75.21;98559.97;5076457;28;20043;-69
2023/04/25 08:57:31;;;;;;;28.27;6.80;;;;;;;16.42;75.19;98553.47;5067947;28;20036;-73
2023/04/25 08:59:57;;;;;;;31.60;9.20;;;;;;;16.77;74.85;98560.44;5083599;28;20032;-72
2023/04/25 09:02:24;;;;;;;282.77;219.80;;;;;;;16.55;69.12;98556.78;5068992;28;20063;-72
2023/04/25 09:04:50;;;;;;;834.53;643.88;;;;;;;16.77;71.31;98556.81;5071661;28;20103;-73
2023/04/25 09:07:18;;;;;;;300.63;234.10;;;;;;;17.13;73.18;98556.91;5068824;28;20031;-70
2023/04/25 09:09:44;;;;;;;48.58;35.10;;;;;;;17.52;73.57;98555.31;5088620;28;20508;-70
2023/04/25 09:12:10;;;;;;;42.80;18.33;;;;;;;18.03;70.83;98550.41;5070911;28;20052;-69
2023/04/25 09:14:35;;;;;;;16.60;11.02;;;;;;;17.94;67.04;98548.00;5072002;28;20032;-70
2023/04/25 09:17:03;;;;;;;15.68;9.77;;;;;;;18.34;68.13;98553.56;5064866;28;20040;-70
2023/04/25 09:19:37;;;;;;;15.60;7.00;;;;;;;18.24;67.50;98548.75;5070945;28;20434;-70
2023/04/25 09:22:04;;;;;;;12.57;5.68;;;;;;;18.49;68.68;98536.50;5071625;28;20103;-70
2023/04/25 09:24:41;;;;;;;11.65;6.28;;;;;;;18.78;68.38;98547.66;5072653;28;20103;-70
2023/04/25 09:27:09;;;;;;;9.20;5.60;;;;;;;19.07;64.68;98539.03;5060398;28;20028;-70
2023/04/25 09:29:37;;;;;;;11.43;5.03;;;;;;;18.45;63.70;98536.50;5072483;28;20386;-70
2023/04/25 09:32:22;;;;;;;12.27;4.75;;;;;;;18.54;64.65;98538.88;5072219;28;20454;-70
2023/04/25 09:34:50;;;;;;;9.93;5.85;;;;;;;19.17;65.62;98535.28;5066308;28;20427;-72
2023/04/25 09:37:21;;;;;;;571.97;139.13;;;;;;;19.08;63.01;98530.09;5052047;28;20029;-73
2023/04/25 09:39:52;;;;;;;47.28;16.75;;;;;;;19.75;61.89;98516.97;5052205;28;20029;-72
2023/04/25 09:42:18;;;;;;;11.40;4.95;;;;;;;20.05;60.23;98521.94;5052120;28;20086;-73
2023/04/25 09:44:47;;;;;;;873.05;92.75;;;;;;;20.60;58.99;98516.38;5068947;28;20032;-76
2023/04/25 09:47:14;;;;;;;124.35;14.70;;;;;;;19.15;60.83;98526.41;5068827;28;20391;-72
2023/04/25 09:49:42;;;;;;;8.85;4.07;;;;;;;19.29;61.48;98508.47;5067886;28;20024;-72
2023/04/25 09:52:08;;;;;;;16.95;5.20;;;;;;;19.58;61.46;98505.38;5070088;28;20027;-72
2023/04/25 09:54:33;;;;;;;4.25;3.33;;;;;;;20.38;60.11;98500.88;5070850;28;20032;-73
2023/04/25 09:57:11;;;;;;;6.03;3.10;;;;;;;20.50;56.32;98502.34;5064887;28;20040;-76
2023/04/25 09:59:39;;;;;;;4.15;2.60;;;;;;;20.75;52.11;98499.94;5069423;28;20032;-74
2023/04/25 10:02:07;;;;;;;4.43;3.10;;;;;;;20.59;52.61;98494.09;5062059;28;20028;-71
2023/04/25 10:04:35;;;;;;;2.95;2.30;;;;;;;20.25;51.51;98480.75;5063800;28;20028;-71
2023/04/25 10:07:05;;;;;;;5.35;2.60;;;;;;;20.46;54.70;98476.81;5064893;28;20038;-73
2023/04/25 10:09:33;;;;;;;7.00;2.53;;;;;;;20.67;53.07;98469.25;5067261;28;20077;-74
2023/04/25 10:12:00;;;;;;;7.95;3.20;;;;;;;20.59;53.53;98466.50;5076563;28;20052;-73
2023/04/25 10:14:26;;;;;;;5.53;3.33;;;;;;;20.80;53.97;98453.22;5106271;28;20073;-73
2023/04/25 10:16:53;;;;;;;4.65;3.17;;;;;;;20.99;54.59;98450.91;5101621;28;20028;-72
2023/04/25 10:19:20;;;;;;;3.15;2.50;;;;;;;21.16;51.36;98446.97;5084545;28;20115;-73
2023/04/25 10:22:14;;;;;;;3.55;2.65;;;;;;;21.26;49.76;98447.22;5097683;28;20114;-73
2023/04/25 10:24:41;;;;;;;11.05;3.47;;;;;;;21.07;50.46;98431.72;5096628;28;20089;-71
2023/04/25 10:27:07;;;;;;;7.00;3.00;;;;;;;20.85;50.46;98438.53;5090073;28;20118;-71
2023/04/25 10:29:32;;;;;;;4.55;2.45;;;;;;;20.56;46.87;98432.44;5107164;28;20087;-72
2023/04/25 10:31:58;;;;;;;2.63;2.22;;;;;;;20.54;47.24;98430.06;5088480;28;20554;-73
2023/04/25 10:34:38;;;;;;;8.88;3.63;;;;;;;20.87;52.22;98436.06;5109426;28;20024;-73
2023/04/25 10:37:03;;;;;;;;;;;;;;;21.26;50.73;98419.56;5095494;28;20484;-71
2023/04/25 10:39:29;;;;;;;4.88;3.60;;;;;;;21.50;47.66;98416.69;5090589;28;19920;-72
2023/04/25 10:41:58;;;;;;;5.95;3.65;;;;;;;21.55;48.33;98415.41;5099276;28;20051;-70
2023/04/25 10:44:30;;;;;;;5.30;3.65;;;;;;;21.80;47.10;98411.28;5096516;28;20402;-72
2023/04/25 10:46:58;;;;;;;5.78;3.60;;;;;;;21.80;48.00;98414.13;5096333;28;20028;-71
2023/04/25 10:49:36;;;;;;;4.03;3.30;;;;;;;21.79;45.02;98404.81;5083409;28;20031;-73
2023/04/25 10:52:15;;;;;;;26.50;4.35;;;;;;;21.76;46.94;98402.03;5090351;28;20024;-71
2023/04/25 10:54:51;;;;;;;4.00;3.70;;;;;;;21.88;47.10;98390.75;5095312;28;20035;-72
2023/04/25 10:57:37;;;;;;;3.67;3.28;;;;;;;21.93;45.48;98389.44;5075833;28;20023;-71
2023/04/25 11:00:10;;;;;;;7.22;3.10;;;;;;;22.34;46.21;98383.72;5093981;28;20031;-71
2023/04/25 11:02:59;;;;;;;3.00;2.70;;;;;;;22.51;44.49;98376.81;5099054;28;20106;-70
2023/04/25 11:05:37;;;;;;;4.85;2.90;;;;;;;22.52;43.78;98372.72;5091188;28;20510;-72
2023/04/25 11:08:11;;;;;;;4.28;2.50;;;;;;;22.53;44.24;98368.63;5088903;28;20031;-75
2023/04/25 11:10:36;;;;;;;4.22;2.90;;;;;;;22.73;42.98;98364.91;5096080;28;20473;-72
2023/04/25 11:13:02;;;;;;;4.80;3.17;;;;;;;22.91;42.26;98358.75;5093245;28;20048;-70
2023/04/25 11:15:28;;;;;;;3.60;3.30;;;;;;;22.48;44.38;98360.63;5111569;28;20130;-68
2023/04/25 11:17:55;;;;;;;2.67;2.47;;;;;;;22.58;42.63;98364.44;5101637;28;20175;-70
2023/04/25 11:20:22;;;;;;;4.05;3.22;;;;;;;22.05;43.54;98355.88;5103479;28;20024;-72